Time;durP1;ratioP1;P1;durP2;ratioP2;P2;SDS_P1;SDS_P2;PMS_P1;PMS_P2;Temp;Humidity;BMP_temperature;BMP_pressure;BME280_temperature;BME280_humidity;BME280_pressure;Samples;Min_cycle;Max_cycle;Signal;HPM_P1;HPM_P2
2022/04/29 00:01:04;;;;;;;11.07;2.15;;;;;;;6.82;67.06;102389.16;5006257;28;20041;-88
2022/04/29 00:03:31;;;;;;;7.18;2.35;;;;;;;6.79;67.54;102391.63;4994734;28;20118;-87
2022/04/29 00:05:58;;;;;;;6.25;1.98;;;;;;;6.75;67.82;102394.97;4975929;28;20733;-88
2022/04/29 00:08:25;;;;;;;3.10;1.50;;;;;;;6.71;67.71;102387.88;5013135;28;20136;-88
2022/04/29 00:10:53;;;;;;;4.85;1.90;;;;;;;6.65;68.50;102385.97;5037807;28;20101;-86
2022/04/29 00:13:22;;;;;;;2.50;1.45;;;;;;;6.62;68.58;102389.34;5015365;28;20073;-84
2022/04/29 00:15:49;;;;;;;8.48;2.08;;;;;;;6.58;68.94;102389.16;4998958;28;20055;-88
2022/04/29 00:18:17;;;;;;;4.97;2.00;;;;;;;6.55;69.03;102389.94;5017250;28;20335;-86
2022/04/29 00:20:44;;;;;;;8.68;2.55;;;;;;;6.50;69.55;102385.41;5024471;28;20057;-87
2022/04/29 00:23:12;;;;;;;6.10;2.20;;;;;;;6.46;69.93;102387.88;5029455;28;20064;-87
2022/04/29 00:25:39;;;;;;;8.00;2.85;;;;;;;6.43;70.89;102382.59;5010389;28;20045;-85
2022/04/29 00:28:06;;;;;;;5.55;2.30;;;;;;;6.41;70.84;102379.06;5033952;28;20043;-86
2022/04/29 00:30:34;;;;;;;5.13;2.35;;;;;;;6.36;70.97;102379.72;5015628;28;20037;-86
2022/04/29 00:33:01;;;;;;;9.73;3.67;;;;;;;6.31;71.60;102378.66;5030267;28;20033;-84
2022/04/29 00:35:28;;;;;;;7.97;2.40;;;;;;;6.27;71.98;102383.75;5037426;28;20045;-86
2022/04/29 00:37:57;;;;;;;6.15;3.72;;;;;;;6.24;72.84;102378.44;4996048;28;20050;-87
2022/04/29 00:40:28;;;;;;;8.40;2.83;;;;;;;6.22;72.81;102380.09;5016074;28;20049;-87
2022/04/29 00:42:56;;;;;;;4.00;2.83;;;;;;;6.17;73.13;102367.78;5020613;28;20046;-86
2022/04/29 00:45:24;;;;;;;5.03;2.10;;;;;;;6.12;73.98;102368.47;5009522;28;20072;-89
2022/04/29 00:47:53;;;;;;;9.05;3.95;;;;;;;6.10;74.76;102369.22;4994130;28;20045;-88
2022/04/29 00:50:26;;;;;;;11.32;2.85;;;;;;;6.08;74.95;102363.09;4998879;28;20117;-89
2022/04/29 00:52:56;;;;;;;11.70;2.50;;;;;;;6.05;75.13;102363.88;5005958;28;20086;-89
2022/04/29 00:55:27;;;;;;;7.03;3.00;;;;;;;6.04;75.23;102363.81;5011373;28;20511;-89
2022/04/29 00:58:29;;;;;;;4.43;3.08;;;;;;;6.05;76.05;102362.97;4978321;28;20052;-89
2022/04/29 01:00:56;;;;;;;4.95;2.97;;;;;;;6.01;76.38;102366.28;4998841;28;20056;-88
2022/04/29 01:03:27;;;;;;;3.83;3.03;;;;;;;5.99;76.38;102360.16;5014698;28;20057;-88
2022/04/29 01:05:53;;;;;;;6.75;2.65;;;;;;;5.95;77.15;102361.72;4998068;28;20099;-89
2022/04/29 01:08:20;;;;;;;7.95;3.40;;;;;;;5.91;77.12;102350.31;5019664;28;20484;-87
2022/04/29 01:10:49;;;;;;;10.63;3.33;;;;;;;5.92;78.10;102352.09;5019049;28;20084;-87
2022/04/29 01:13:19;;;;;;;9.00;3.17;;;;;;;5.93;77.79;102346.06;5017035;28;20123;-89
2022/04/29 01:15:51;;;;;;;6.13;3.33;;;;;;;5.94;78.09;102352.16;5006194;28;20066;-87
2022/04/29 01:18:18;;;;;;;6.50;3.20;;;;;;;5.93;77.73;102350.38;5009560;28;20124;-89
2022/04/29 01:20:45;;;;;;;6.65;3.92;;;;;;;5.91;78.00;102337.31;5007285;28;20132;-88
2022/04/29 01:23:13;;;;;;;11.55;5.07;;;;;;;5.90;78.66;102338.16;5003957;28;20779;-88
2022/04/29 01:25:41;;;;;;;4.95;3.00;;;;;;;5.91;78.68;102349.44;5015322;28;20052;-88
2022/04/29 01:28:10;;;;;;;23.70;6.57;;;;;;;5.93;79.53;102351.28;5014713;28;20610;-89
2022/04/29 01:30:39;;;;;;;6.10;3.63;;;;;;;5.94;79.55;102347.84;5010412;28;20050;-88
2022/04/29 01:33:07;;;;;;;7.25;3.13;;;;;;;5.96;79.74;102342.72;4998950;28;20064;-88
2022/04/29 01:35:33;;;;;;;4.65;2.85;;;;;;;5.95;79.83;102344.41;4997953;28;20061;-87
2022/04/29 01:38:00;;;;;;;10.32;3.30;;;;;;;5.93;79.95;102342.56;5005594;28;20088;-89
2022/04/29 01:40:27;;;;;;;6.97;3.03;;;;;;;5.91;80.29;102341.66;5015863;28;20427;-88
2022/04/29 01:42:54;;;;;;;11.20;3.63;;;;;;;5.90;80.26;102345.06;5009468;28;20058;-86
2022/04/29 01:45:21;;;;;;;11.85;4.38;;;;;;;5.87;81.35;102345.84;4995652;28;20057;-87
2022/04/29 01:47:47;;;;;;;10.60;3.92;;;;;;;5.87;81.12;102350.16;4978371;28;20773;-87
2022/04/29 01:50:15;;;;;;;9.68;3.83;;;;;;;5.87;81.65;102350.16;4996542;28;20052;-86
2022/04/29 01:52:42;;;;;;;8.10;4.97;;;;;;;5.85;81.31;102337.09;5000725;28;20343;-87
2022/04/29 01:55:09;;;;;;;9.20;3.95;;;;;;;5.85;81.98;102326.69;5008428;28;20559;-88
2022/04/29 01:57:36;;;;;;;8.63;3.67;;;;;;;5.87;81.58;102326.78;5015173;28;20460;-88
2022/04/29 02:00:05;;;;;;;13.07;3.33;;;;;;;5.89;81.97;102327.69;5005459;28;20309;-87
2022/04/29 02:02:32;;;;;;;4.55;3.88;;;;;;;5.90;82.07;102324.28;5002556;28;20659;-87
2022/04/29 02:05:00;;;;;;;8.63;3.65;;;;;;;5.93;82.34;102325.28;4997951;28;20049;-88
2022/04/29 02:07:26;;;;;;;8.25;4.00;;;;;;;5.95;82.27;102322.72;5004944;28;20106;-87
2022/04/29 02:09:56;;;;;;;7.10;3.15;;;;;;;5.97;82.49;102314.16;4991438;28;20171;-85
2022/04/29 02:12:24;;;;;;;11.15;3.75;;;;;;;5.97;82.37;102313.25;5007339;28;20457;-87
2022/04/29 02:14:52;;;;;;;7.75;3.80;;;;;;;6.00;82.94;102309.91;5008819;28;20469;-88
2022/04/29 02:17:19;;;;;;;8.27;4.15;;;;;;;6.01;82.76;102304.81;5018770;28;20424;-87
2022/04/29 02:19:50;;;;;;;8.95;3.78;;;;;;;6.02;82.96;102306.53;5021182;28;20045;-88
2022/04/29 02:22:18;;;;;;;7.95;3.90;;;;;;;6.02;82.98;102306.53;5014436;28;20047;-88
2022/04/29 02:24:45;;;;;;;9.15;4.80;;;;;;;6.00;83.21;102313.44;5011537;28;20060;-88
2022/04/29 02:27:12;;;;;;;7.50;3.45;;;;;;;5.99;83.18;102314.25;4995571;28;20534;-87
2022/04/29 02:29:39;;;;;;;9.35;4.18;;;;;;;5.96;83.81;102316.72;5001319;28;20045;-89
2022/04/29 02:32:07;;;;;;;12.00;4.78;;;;;;;5.93;84.38;102311.38;5011162;28;20087;-88
2022/04/29 02:34:36;;;;;;;5.70;3.70;;;;;;;5.91;85.19;102311.34;4990428;28;20042;-85
2022/04/29 02:37:04;;;;;;;12.10;4.93;;;;;;;5.86;85.51;102315.47;5006459;28;20057;-88
2022/04/29 02:39:31;;;;;;;10.07;4.25;;;;;;;5.84;85.60;102311.03;4998909;28;20048;-87
2022/04/29 02:41:57;;;;;;;10.02;4.13;;;;;;;5.82;85.92;102310.13;5019075;28;20041;-88
2022/04/29 02:44:24;;;;;;;9.65;4.85;;;;;;;5.79;85.84;102319.56;5017393;28;20056;-86
2022/04/29 02:47:10;;;;;;;8.93;3.80;;;;;;;5.76;86.23;102300.34;5011238;28;20045;-85
2022/04/29 02:49:43;;;;;;;8.15;5.20;;;;;;;5.70;86.22;102313.16;5017071;28;20046;-87
2022/04/29 02:52:12;;;;;;;8.63;3.78;;;;;;;5.65;86.72;102312.09;5011958;28;20152;-87
2022/04/29 02:54:42;;;;;;;15.23;4.88;;;;;;;5.61;87.22;102309.34;4999131;28;20077;-87
2022/04/29 02:57:09;;;;;;;8.77;4.25;;;;;;;5.60;87.28;102298.91;5019644;28;20064;-87
2022/04/29 02:59:36;;;;;;;13.05;5.43;;;;;;;5.57;87.66;102294.47;5014372;28;20046;-89
2022/04/29 03:02:03;;;;;;;9.63;4.78;;;;;;;5.54;87.44;102293.47;5008450;28;20046;-88
2022/04/29 03:04:30;;;;;;;8.45;5.05;;;;;;;5.52;88.02;102298.59;5023879;28;20037;-86
2022/04/29 03:06:58;;;;;;;10.63;4.93;;;;;;;5.47;88.00;102289.75;5008847;28;20048;-88
2022/04/29 03:09:25;;;;;;;6.65;4.53;;;;;;;5.44;88.66;102281.84;5013273;28;20059;-88
2022/04/29 03:11:52;;;;;;;12.75;5.03;;;;;;;5.39;89.01;102286.84;4994401;28;20117;-87
2022/04/29 03:14:18;;;;;;;10.32;4.47;;;;;;;5.33;88.87;102280.53;5029111;28;20056;-88
2022/04/29 03:16:45;;;;;;;8.27;4.85;;;;;;;5.30;89.08;102281.31;5031250;28;20073;-89
2022/04/29 03:19:14;;;;;;;13.40;4.78;;;;;;;5.25;89.98;102283.75;5007657;28;20047;-88
2022/04/29 03:21:41;;;;;;;7.38;5.13;;;;;;;5.21;89.69;102270.56;5035127;28;20052;-88
2022/04/29 03:24:08;;;;;;;9.68;4.60;;;;;;;5.19;90.27;102274.81;4980341;28;20045;-87
2022/04/29 03:26:37;;;;;;;16.23;4.90;;;;;;;5.15;90.99;102268.63;4990628;28;20132;-87
2022/04/29 03:29:04;;;;;;;13.20;5.72;;;;;;;5.12;91.18;102265.91;4995339;28;20061;-88
2022/04/29 03:31:32;;;;;;;9.93;5.15;;;;;;;5.09;91.73;102264.06;5018288;28;20092;-86
2022/04/29 03:33:59;;;;;;;14.02;6.13;;;;;;;5.08;93.84;102262.28;5029161;28;20065;-86
2022/04/29 03:36:26;;;;;;;11.50;5.32;;;;;;;5.08;94.11;102261.41;5015730;28;20535;-88
2022/04/29 03:38:52;;;;;;;8.68;5.65;;;;;;;5.05;93.48;102254.38;5009149;28;20121;-87
2022/04/29 03:41:20;;;;;;;11.10;6.13;;;;;;;5.05;93.66;102264.78;4984133;28;20069;-85
2022/04/29 03:43:48;;;;;;;9.88;5.43;;;;;;;5.01;93.49;102262.00;5031173;28;20064;-86
2022/04/29 03:46:18;;;;;;;8.52;6.15;;;;;;;4.98;93.80;102270.56;5019375;28;20046;-86
2022/04/29 03:51:29;;;;;;;9.63;5.75;;;;;;;4.92;94.28;102270.31;5018189;28;20471;-86
2022/04/29 03:53:57;;;;;;;18.58;5.13;;;;;;;4.89;94.38;102273.66;4995865;28;20061;-87
2022/04/29 03:56:28;;;;;;;18.00;5.63;;;;;;;4.86;95.20;102273.50;5011209;28;20049;-86
2022/04/29 03:58:55;;;;;;;12.75;6.13;;;;;;;4.86;95.00;102273.50;5024504;28;20041;-87
2022/04/29 04:01:23;;;;;;;15.57;9.05;;;;;;;4.85;95.58;102279.56;4993439;28;20034;-87
2022/04/29 04:03:53;;;;;;;9.88;5.93;;;;;;;4.88;95.29;102277.06;5007756;28;20081;-87
2022/04/29 04:09:07;;;;;;;11.23;6.00;;;;;;;4.88;95.79;102269.28;5016451;28;20088;-86
2022/04/29 04:11:36;;;;;;;9.05;6.18;;;;;;;4.87;95.22;102275.28;5005653;28;20091;-86
2022/04/29 04:14:03;;;;;;;13.85;6.63;;;;;;;4.88;95.82;102263.22;4975223;28;20634;-87
2022/04/29 04:16:30;;;;;;;6.85;5.32;;;;;;;4.87;95.52;102262.31;4979086;28;20054;-87
2022/04/29 04:19:03;;;;;;;12.18;5.95;;;;;;;4.87;96.31;102264.03;4992067;28;20046;-87
2022/04/29 04:21:32;;;;;;;17.08;6.65;;;;;;;4.88;96.02;102266.69;5006383;28;20057;-86
2022/04/29 04:23:59;;;;;;;19.40;7.00;;;;;;;4.91;96.25;102265.94;4994806;28;20087;-86
2022/04/29 04:26:25;;;;;;;13.25;6.00;;;;;;;4.92;96.30;102265.97;4992538;28;20104;-85
2022/04/29 04:28:52;;;;;;;11.57;5.95;;;;;;;4.92;96.47;102260.78;4993869;28;20044;-87
2022/04/29 04:31:21;;;;;;;12.40;6.70;;;;;;;4.89;96.36;102260.69;5004768;28;20052;-87
2022/04/29 04:33:49;;;;;;;12.35;6.65;;;;;;;4.91;96.64;102265.94;5009285;28;20576;-87
2022/04/29 04:36:16;;;;;;;10.60;6.75;;;;;;;4.91;96.40;102273.72;5000277;28;20041;-85
2022/04/29 04:38:45;;;;;;;16.52;7.35;;;;;;;4.93;97.25;102272.09;5013245;28;20056;-87
2022/04/29 04:41:14;;;;;;;18.67;7.00;;;;;;;4.96;96.92;102273.06;4998542;28;20053;-86
2022/04/29 04:43:43;;;;;;;12.85;6.93;;;;;;;4.99;96.94;102266.25;5017742;28;20054;-85
2022/04/29 04:46:13;;;;;;;12.48;7.75;;;;;;;4.98;97.39;102280.94;5016214;28;20100;-87
2022/04/29 04:48:43;;;;;;;13.38;7.78;;;;;;;4.97;97.56;102276.56;5014681;28;20057;-87
2022/04/29 04:51:11;;;;;;;16.90;7.47;;;;;;;4.99;97.40;102271.44;5006648;28;20221;-84
2022/04/29 04:53:39;;;;;;;15.20;7.13;;;;;;;4.98;97.22;102278.34;5017081;28;20214;-85
2022/04/29 04:56:06;;;;;;;11.38;7.55;;;;;;;4.98;97.68;102270.56;5023882;28;20118;-85
2022/04/29 04:58:34;;;;;;;16.13;6.72;;;;;;;5.00;97.87;102266.28;5013076;28;20057;-84
2022/04/29 05:01:03;;;;;;;14.02;7.70;;;;;;;5.03;98.46;102271.63;5029876;28;20049;-86
2022/04/29 05:03:30;;;;;;;21.23;10.65;;;;;;;5.07;97.93;102278.72;5026882;28;20049;-85
2022/04/29 05:05:57;;;;;;;19.73;8.40;;;;;;;5.08;97.55;102279.59;5013008;28;20120;-84
2022/04/29 05:08:23;;;;;;;10.77;7.05;;;;;;;5.09;97.35;102278.75;5028393;28;20068;-87
2022/04/29 05:13:39;;;;;;;15.07;8.07;;;;;;;5.24;97.59;102296.63;5033513;28;20041;-85
2022/04/29 05:16:07;;;;;;;15.55;8.65;;;;;;;5.27;97.04;102295.06;5020730;28;20059;-85
2022/04/29 05:18:34;;;;;;;12.95;7.07;;;;;;;5.31;97.00;102293.47;5003724;28;20057;-86
2022/04/29 05:21:05;;;;;;;13.45;7.13;;;;;;;5.34;96.82;102293.59;5008876;28;20054;-85
2022/04/29 05:23:33;;;;;;;15.20;7.47;;;;;;;5.41;96.90;102303.41;5012038;28;20101;-85
2022/04/29 05:26:05;;;;;;;20.30;8.40;;;;;;;5.49;96.57;102297.59;5004564;28;20155;-86
2022/04/29 05:28:33;;;;;;;14.60;7.95;;;;;;;5.57;96.19;102301.41;4998850;28;20135;-87
2022/04/29 05:31:00;;;;;;;15.52;7.10;;;;;;;5.65;95.40;102301.69;5030296;28;20415;-86
2022/04/29 05:36:17;;;;;;;15.48;8.27;;;;;;;5.79;94.66;102292.69;5025097;28;20079;-85
2022/04/29 05:44:13;;;;;;;15.25;7.50;;;;;;;6.15;93.48;102301.81;5018257;28;20042;-86
2022/04/29 05:46:40;;;;;;;13.07;8.40;;;;;;;6.28;92.62;102299.72;5019502;28;20053;-86
2022/04/29 05:49:07;;;;;;;19.52;11.00;;;;;;;6.39;92.19;102297.47;4997286;28;20041;-87
2022/04/29 05:51:34;;;;;;;20.25;7.10;;;;;;;6.52;91.50;102295.28;5028237;28;20049;-86
2022/04/29 05:54:10;;;;;;;28.30;8.90;;;;;;;6.55;90.87;102290.19;4992297;23;20075;-87
2022/04/29 05:56:37;;;;;;;26.30;9.50;;;;;;;6.58;90.34;102291.19;4983917;28;20051;-87
2022/04/29 05:59:04;;;;;;;12.70;7.32;;;;;;;6.60;89.90;102288.63;4976106;28;20034;-86
2022/04/29 06:01:31;;;;;;;16.42;8.27;;;;;;;6.60;89.91;102286.91;4961579;28;20042;-86
2022/04/29 06:04:00;;;;;;;17.77;9.07;;;;;;;6.65;89.89;102291.38;4972763;28;20050;-85
2022/04/29 06:06:29;;;;;;;18.90;9.30;;;;;;;6.70;89.79;102289.81;4971835;28;20042;-86
2022/04/29 06:11:36;;;;;;;14.25;7.72;;;;;;;6.79;89.30;102282.31;4981342;28;20077;-87
2022/04/29 06:14:03;;;;;;;14.10;9.15;;;;;;;6.85;89.20;102286.84;4958005;28;20471;-86
2022/04/29 06:16:30;;;;;;;21.05;8.70;;;;;;;6.86;89.20;102275.63;4965575;28;20074;-86
2022/04/29 06:18:58;;;;;;;16.13;8.73;;;;;;;6.91;88.91;102276.63;4958082;28;20136;-87
2022/04/29 06:21:25;;;;;;;15.98;8.68;;;;;;;6.95;88.71;102273.31;4972831;28;20126;-85
2022/04/29 06:23:54;;;;;;;16.15;8.90;;;;;;;7.03;88.77;102264.00;4972789;28;20413;-87
2022/04/29 06:26:21;;;;;;;17.63;9.10;;;;;;;7.14;88.45;102269.53;4966371;28;20069;-85
2022/04/29 06:28:48;;;;;;;17.23;9.50;;;;;;;7.26;87.60;102276.84;4972001;28;20055;-87
2022/04/29 06:31:14;;;;;;;24.45;9.82;;;;;;;7.27;86.84;102278.63;4993645;28;20050;-85
2022/04/29 06:33:41;;;;;;;22.77;9.43;;;;;;;7.32;86.80;102276.19;4976733;28;20081;-86
2022/04/29 06:36:09;;;;;;;18.70;8.68;;;;;;;7.44;86.74;102273.94;4975674;28;20054;-86
2022/04/29 06:38:38;;;;;;;21.10;9.93;;;;;;;7.59;85.57;102266.56;4974092;28;20050;-87
2022/04/29 06:41:06;;;;;;;21.80;10.88;;;;;;;7.70;84.60;102264.25;4960337;28;20062;-85
2022/04/29 06:43:33;;;;;;;22.77;10.30;;;;;;;7.82;83.30;102268.06;4957797;28;20548;-85
2022/04/29 06:46:01;;;;;;;26.88;12.70;;;;;;;7.93;82.66;102270.13;4972910;28;20116;-84
2022/04/29 06:48:28;;;;;;;19.40;10.55;;;;;;;8.01;81.77;102265.13;4954685;28;20046;-86
2022/04/29 06:50:55;;;;;;;25.70;10.95;;;;;;;8.23;81.84;102270.94;4982579;28;20089;-86
2022/04/29 06:53:21;;;;;;;18.48;10.23;;;;;;;8.55;80.30;102269.22;4967499;28;20417;-86
2022/04/29 06:55:48;;;;;;;17.08;9.73;;;;;;;8.93;78.76;102268.41;4955368;28;20114;-85
2022/04/29 06:58:15;;;;;;;21.10;9.40;;;;;;;9.46;76.70;102272.19;4939530;28;20127;-85
2022/04/29 07:00:43;;;;;;;20.60;8.88;;;;;;;9.96;74.54;102263.59;4959623;28;20042;-84
2022/04/29 07:03:11;;;;;;;23.17;9.70;;;;;;;10.27;72.03;102265.06;4937428;28;20120;-86
2022/04/29 07:05:41;;;;;;;17.70;8.95;;;;;;;10.36;70.74;102262.66;4971174;28;20050;-86
2022/04/29 07:08:09;;;;;;;21.88;9.48;;;;;;;10.27;70.91;102258.13;4953231;28;20046;-87
2022/04/29 07:10:36;;;;;;;26.95;10.27;;;;;;;10.30;70.68;102257.28;4974007;28;20066;-86
2022/04/29 07:13:04;;;;;;;14.70;8.32;;;;;;;10.23;70.08;102251.06;4973162;28;20049;-86
2022/04/29 07:15:32;;;;;;;17.85;8.88;;;;;;;10.12;70.09;102249.97;4950162;28;20100;-86
2022/04/29 07:17:59;;;;;;;15.90;9.02;;;;;;;10.05;70.70;102250.69;4957669;28;20073;-86
2022/04/29 07:20:26;;;;;;;20.23;9.82;;;;;;;10.24;70.39;102242.34;4967961;28;20053;-86
2022/04/29 07:22:54;;;;;;;15.30;8.23;;;;;;;10.66;69.14;102255.31;4971408;28;20421;-85
2022/04/29 07:25:29;;;;;;;20.35;9.82;;;;;;;11.03;67.70;102248.91;4971632;28;20133;-86
2022/04/29 07:27:59;;;;;;;18.15;8.40;;;;;;;11.47;66.86;102253.00;4971957;28;20112;-85
2022/04/29 07:30:27;;;;;;;21.52;9.88;;;;;;;11.86;63.82;102254.38;4972823;28;20051;-86
2022/04/29 07:32:55;;;;;;;16.75;8.30;;;;;;;12.04;62.76;102247.56;4971129;28;20074;-86
2022/04/29 07:43:44;;;;;;;15.88;8.30;;;;;;;13.50;56.59;102241.69;4982827;28;20034;-87
2022/04/29 07:46:11;;;;;;;15.70;7.43;;;;;;;13.77;55.28;102250.56;4950752;28;20109;-86
2022/04/29 07:48:38;;;;;;;41.00;12.35;;;;;;;13.92;53.71;102234.78;4981040;28;20081;-86
2022/04/29 07:51:06;;;;;;;18.77;8.73;;;;;;;14.20;54.39;102240.13;4976717;28;20054;-86
2022/04/29 07:53:34;;;;;;;19.13;10.02;;;;;;;14.53;52.75;102238.41;4973076;28;20062;-87
2022/04/29 07:56:01;;;;;;;10.15;8.10;;;;;;;14.79;51.36;102248.94;4952569;28;20046;-87
2022/04/29 07:58:27;;;;;;;13.95;7.75;;;;;;;15.13;51.36;102235.69;4954278;28;20492;-87
2022/04/29 08:00:55;;;;;;;15.75;7.55;;;;;;;15.68;50.35;102223.19;4972364;28;20050;-86
2022/04/29 08:03:30;;;;;;;15.30;9.15;;;;;;;16.28;48.96;102232.53;4943166;28;20133;-84
2022/04/29 08:05:57;;;;;;;15.13;9.45;;;;;;;16.77;47.69;102226.81;4975953;28;20062;-85
2022/04/29 08:08:23;;;;;;;15.40;8.25;;;;;;;17.36;46.48;102234.16;4984803;28;20047;-85
2022/04/29 08:10:52;;;;;;;12.77;7.70;;;;;;;18.05;45.48;102226.22;4954335;28;20050;-87
2022/04/29 08:13:19;;;;;;;20.15;9.48;;;;;;;18.45;44.37;102230.88;4993161;28;20509;-86
2022/04/29 08:15:47;;;;;;;15.68;9.55;;;;;;;18.79;41.65;102230.31;4955634;28;20058;-86
2022/04/29 08:18:14;;;;;;;16.48;8.32;;;;;;;18.78;42.52;102229.41;4941144;28;20064;-86
2022/04/29 08:20:43;;;;;;;12.77;7.93;;;;;;;19.11;41.69;102226.19;4970197;28;20057;-87
2022/04/29 08:23:10;;;;;;;15.93;8.43;;;;;;;19.45;41.22;102231.69;4970726;28;20772;-88
2022/04/29 08:25:38;;;;;;;14.20;8.55;;;;;;;19.69;40.14;102217.91;4986895;28;20125;-86
2022/04/29 08:28:07;;;;;;;16.73;8.90;;;;;;;19.86;39.57;102222.88;4954452;28;20775;-85
2022/04/29 08:30:43;;;;;;;15.90;8.63;;;;;;;19.99;39.32;102219.88;4943538;28;20049;-85
2022/04/29 08:33:16;;;;;;;13.55;7.38;;;;;;;20.24;38.71;102219.28;4971364;28;20050;-87
2022/04/29 08:35:46;;;;;;;14.85;8.50;;;;;;;20.69;38.46;102215.53;4963898;28;20062;-85
2022/04/29 08:38:13;;;;;;;10.57;8.50;;;;;;;21.36;37.31;102211.03;4961490;28;20057;-85
2022/04/29 08:40:47;;;;;;;12.65;8.02;;;;;;;21.62;35.34;102202.28;4975709;28;20046;-86
2022/04/29 08:43:17;;;;;;;;;;;;;;;21.22;35.14;102200.78;4969590;28;20051;-87
2022/04/29 08:45:44;;;;;;;14.95;8.13;;;;;;;21.27;36.40;102210.38;4971962;28;19934;-86
2022/04/29 08:48:16;;;;;;;13.05;7.22;;;;;;;21.71;35.90;102201.16;4956930;28;20116;-86
2022/04/29 08:50:45;;;;;;;10.43;7.55;;;;;;;22.07;34.45;102196.44;4957211;28;20129;-85
2022/04/29 08:53:13;;;;;;;14.50;8.40;;;;;;;22.31;34.10;102200.06;4944331;28;20047;-86
2022/04/29 09:01:16;;;;;;;14.90;6.72;;;;;;;22.85;32.98;102201.81;4963996;28;20383;-87
2022/04/29 09:03:47;;;;;;;13.63;7.18;;;;;;;23.44;32.29;102193.41;4938392;28;20050;-86
2022/04/29 09:06:21;;;;;;;6.78;6.03;;;;;;;23.92;31.59;102194.22;4969472;28;20154;-87
2022/04/29 09:08:52;;;;;;;8.38;6.13;;;;;;;24.42;30.71;102192.16;4956436;28;20051;-87
2022/04/29 09:14:22;;;;;;;10.35;6.60;;;;;;;24.66;28.47;102192.91;4966018;28;20043;-87
2022/04/29 09:16:50;;;;;;;12.43;6.65;;;;;;;24.30;29.76;102196.22;4953143;28;20047;-87
2022/04/29 09:19:37;;;;;;;11.43;6.68;;;;;;;24.20;28.62;102187.72;4951434;28;20042;-85
2022/04/29 09:22:10;;;;;;;10.75;6.88;;;;;;;24.35;29.60;102188.00;4975028;28;20046;-86
2022/04/29 09:24:37;;;;;;;10.82;6.15;;;;;;;24.63;29.07;102182.34;4977418;28;20558;-88
2022/04/29 09:27:06;;;;;;;9.35;6.93;;;;;;;24.64;28.50;102181.41;4962572;28;20139;-87
2022/04/29 09:29:42;;;;;;;10.70;7.10;;;;;;;24.61;28.05;102171.69;4970514;28;20042;-87
2022/04/29 09:32:11;;;;;;;10.70;6.75;;;;;;;24.34;28.91;102176.44;4958890;28;20125;-87
2022/04/29 09:34:53;;;;;;;7.70;6.53;;;;;;;24.96;28.11;102173.72;4959464;28;20081;-88
2022/04/29 09:46:23;;;;;;;9.25;7.15;;;;;;;26.85;25.08;102165.38;5072918;27;20741;-81
2022/04/29 09:49:06;;;;;;;10.10;7.53;;;;;;;27.21;24.70;102167.00;5033136;28;20045;-83
2022/04/29 09:51:53;;;;;;;12.38;6.95;;;;;;;27.58;23.96;102161.41;5043704;28;20050;-82
2022/04/29 09:54:30;;;;;;;11.50;7.85;;;;;;;27.67;24.79;102163.56;5053445;28;20056;-81
2022/04/29 09:57:14;;;;;;;8.95;6.25;;;;;;;27.62;24.68;102157.56;5022232;28;20140;-82
2022/04/29 09:59:59;;;;;;;11.27;6.90;;;;;;;27.35;24.92;102158.16;5043534;28;20558;-82
2022/04/29 10:02:27;;;;;;;9.98;5.95;;;;;;;27.24;25.46;102153.38;5055757;28;20040;-82
2022/04/29 10:04:56;;;;;;;9.07;5.95;;;;;;;27.52;24.94;102154.56;5023286;28;20049;-82
2022/04/29 10:07:25;;;;;;;12.18;6.55;;;;;;;27.99;24.37;102149.16;5052789;28;20052;-83
2022/04/29 10:09:55;;;;;;;14.02;7.07;;;;;;;28.39;23.77;102146.81;5038838;28;20049;-82
2022/04/29 10:12:27;;;;;;;11.07;7.88;;;;;;;28.80;22.45;102135.31;5036211;28;20041;-85
2022/04/29 10:14:58;;;;;;;11.35;7.35;;;;;;;28.71;22.88;102142.16;5050042;28;20149;-82
2022/04/29 10:23:08;;;;;;;8.68;5.22;;;;;;;29.66;22.13;102128.03;5040498;28;20049;-83
2022/04/29 10:25:43;;;;;;;15.43;6.60;;;;;;;30.14;22.11;102131.13;5036190;28;20045;-85
2022/04/29 10:28:20;;;;;;;9.02;5.63;;;;;;;29.43;22.33;102134.97;5049661;28;20048;-83
2022/04/29 10:30:47;;;;;;;6.65;6.05;;;;;;;29.34;22.59;102136.44;5033266;28;20052;-84
2022/04/29 10:33:23;;;;;;;9.07;5.97;;;;;;;29.75;21.36;102138.22;5035455;28;20045;-83
2022/04/29 10:35:56;;;;;;;11.70;6.53;;;;;;;29.46;21.82;102126.66;5035847;28;20406;-80
2022/04/29 10:38:39;;;;;;;8.30;6.25;;;;;;;28.79;22.31;102130.03;5036908;28;20142;-82
2022/04/29 10:41:23;;;;;;;10.40;5.90;;;;;;;28.65;22.44;102134.44;5045552;28;20426;-82
2022/04/29 10:43:53;;;;;;;10.52;5.85;;;;;;;28.33;22.78;102136.41;5039833;28;20279;-80
2022/04/29 10:46:36;;;;;;;7.25;5.57;;;;;;;27.48;23.71;102126.09;5053061;28;20049;-84
2022/04/29 10:49:30;;;;;;;10.88;6.15;;;;;;;26.75;24.51;102134.56;5058162;28;20387;-82
2022/04/29 10:51:59;;;;;;;12.35;6.35;;;;;;;25.86;25.45;102131.97;5046928;28;20048;-82
2022/04/29 10:54:35;;;;;;;8.57;5.72;;;;;;;24.40;27.19;102127.09;5043309;28;20040;-81
2022/04/29 10:57:07;;;;;;;7.22;5.40;;;;;;;23.64;28.17;102130.25;4975418;28;20054;-82
2022/04/29 11:00:00;;;;;;;11.50;6.53;;;;;;;23.25;28.67;102130.91;4976891;28;20113;-82
2022/04/29 11:02:34;;;;;;;16.08;7.15;;;;;;;23.35;28.48;102128.72;4990929;28;20350;-81
2022/04/29 11:05:02;;;;;;;8.52;5.75;;;;;;;23.35;28.57;102123.38;4987070;28;20049;-82
2022/04/29 11:07:44;;;;;;;14.60;6.55;;;;;;;23.19;28.64;102117.78;5005310;28;20061;-83
2022/04/29 11:10:22;;;;;;;9.13;5.88;;;;;;;23.31;28.65;102111.97;4988159;28;20119;-82
2022/04/29 11:13:03;;;;;;;10.50;7.00;;;;;;;23.51;28.12;102105.81;4986453;28;20201;-82
2022/04/29 11:15:45;;;;;;;10.20;6.40;;;;;;;23.64;28.27;102108.88;4991752;28;20507;-82
2022/04/29 11:18:23;;;;;;;10.70;6.67;;;;;;;23.59;28.53;102094.81;4989834;28;20042;-84
2022/04/29 11:20:57;;;;;;;8.65;6.13;;;;;;;23.88;28.41;102098.09;4994913;28;20141;-81
2022/04/29 11:26:18;;;;;;;10.30;5.95;;;;;;;24.61;27.61;102093.16;4993796;28;20129;-82
2022/04/29 11:28:45;;;;;;;9.10;5.63;;;;;;;25.34;26.94;102084.44;4989804;28;20050;-85
2022/04/29 11:31:12;;;;;;;9.63;6.15;;;;;;;26.07;25.62;102082.63;4990163;28;20056;-81
2022/04/29 11:33:40;;;;;;;11.50;6.45;;;;;;;26.98;24.82;102078.72;4992457;28;20120;-85
2022/04/29 11:36:10;;;;;;;10.13;6.47;;;;;;;27.52;23.86;102072.97;5001613;28;20629;-83
2022/04/29 11:38:50;;;;;;;12.27;6.15;;;;;;;28.18;23.05;102074.44;5005978;28;20068;-81
2022/04/29 11:41:19;;;;;;;9.00;5.97;;;;;;;28.66;23.12;102066.13;5004492;28;20048;-81
2022/04/29 11:43:47;;;;;;;12.00;5.63;;;;;;;29.08;22.15;102076.09;5004782;28;20481;-85
2022/04/29 11:46:16;;;;;;;7.97;5.38;;;;;;;29.27;22.30;102071.25;5003834;28;20049;-84
2022/04/29 11:48:57;;;;;;;8.93;5.82;;;;;;;29.40;22.06;102065.91;5008806;28;20041;-82
2022/04/29 11:51:28;;;;;;;8.98;6.30;;;;;;;29.46;21.62;102062.78;4989961;28;20208;-85
2022/04/29 11:54:00;;;;;;;11.80;6.80;;;;;;;29.65;22.06;102059.72;4987849;28;20050;-84
2022/04/29 11:56:41;;;;;;;9.38;5.43;;;;;;;29.53;21.26;102053.31;5004153;28;20611;-82
2022/04/29 11:59:09;;;;;;;9.60;6.43;;;;;;;29.44;21.35;102053.06;4984473;28;20053;-82
2022/04/29 12:01:38;;;;;;;7.85;6.45;;;;;;;29.09;21.41;102051.72;4987783;28;20609;-82
2022/04/29 12:04:06;;;;;;;9.35;6.68;;;;;;;28.29;22.25;102049.56;4985252;28;20070;-82
2022/04/29 12:06:33;;;;;;;14.43;9.40;;;;;;;27.96;22.73;102052.47;5001564;28;20346;-82
2022/04/29 12:09:00;;;;;;;12.95;7.93;;;;;;;27.62;22.91;102043.72;4977264;28;20116;-83
2022/04/29 12:11:31;;;;;;;8.63;6.13;;;;;;;27.54;23.46;102041.50;5002479;28;20390;-80
2022/04/29 12:14:16;;;;;;;9.02;5.57;;;;;;;28.18;22.21;102038.59;4986190;28;20412;-82
2022/04/29 12:16:50;;;;;;;11.25;5.50;;;;;;;29.20;21.50;102030.31;5004953;28;20048;-82
2022/04/29 12:19:22;;;;;;;8.23;5.97;;;;;;;29.62;21.04;102038.34;4988618;28;20104;-84
2022/04/29 12:21:58;;;;;;;9.85;6.38;;;;;;;29.92;19.83;102033.66;4989600;28;20061;-84
2022/04/29 12:24:41;;;;;;;12.30;6.30;;;;;;;29.47;19.29;102032.13;4988786;28;20072;-82
2022/04/29 12:27:09;;;;;;;12.05;7.43;;;;;;;28.48;20.85;102029.56;5003393;28;20068;-82
2022/04/29 12:29:39;;;;;;;8.80;6.15;;;;;;;27.75;21.85;102023.19;5000140;28;20052;-82